sensor_id;sensor_type;location;lat;lon;timestamp;P1;durP1;ratioP1;P2;durP2;ratioP2
79122;SDS011;68526;44.600;26.032;2023-07-24T00:00:13;6.60;;;5.68;;
79122;SDS011;68526;44.600;26.032;2023-07-24T00:00:29;7.30;;;5.68;;
79122;SDS011;68526;44.600;26.032;2023-07-24T00:00:45;7.50;;;5.80;;
79122;SDS011;68526;44.600;26.032;2023-07-24T00:01:00;7.25;;;5.80;;
79122;SDS011;68526;44.600;26.032;2023-07-24T00:01:16;7.30;;;5.40;;
79122;SDS011;68526;44.600;26.032;2023-07-24T00:01:34;6.45;;;5.22;;
79122;SDS011;68526;44.600;26.032;2023-07-24T00:01:51;7.88;;;5.35;;
79122;SDS011;68526;44.600;26.032;2023-07-24T00:02:07;7.93;;;5.40;;
79122;SDS011;68526;44.600;26.032;2023-07-24T00:02:22;7.13;;;5.47;;
79122;SDS011;68526;44.600;26.032;2023-07-24T00:02:38;7.85;;;5.40;;
79122;SDS011;68526;44.600;26.032;2023-07-24T00:02:54;7.80;;;5.57;;
79122;SDS011;68526;44.600;26.032;2023-07-24T00:03:11;6.93;;;5.45;;
79122;SDS011;68526;44.600;26.032;2023-07-24T00:03:26;6.72;;;5.32;;
79122;SDS011;68526;44.600;26.032;2023-07-24T00:03:43;6.68;;;5.22;;
79122;SDS011;68526;44.600;26.032;2023-07-24T00:03:59;6.50;;;5.35;;
79122;SDS011;68526;44.600;26.032;2023-07-24T00:04:15;6.07;;;5.27;;
79122;SDS011;68526;44.600;26.032;2023-07-24T00:04:31;6.20;;;5.30;;
79122;SDS011;68526;44.600;26.032;2023-07-24T00:04:47;6.82;;;5.57;;
79122;SDS011;68526;44.600;26.032;2023-07-24T00:05:03;6.93;;;5.47;;
79122;SDS011;68526;44.600;26.032;2023-07-24T00:05:20;7.97;;;5.30;;
79122;SDS011;68526;44.600;26.032;2023-07-24T00:05:36;9.00;;;5.15;;
79122;SDS011;68526;44.600;26.032;2023-07-24T00:05:52;7.57;;;5.13;;
79122;SDS011;68526;44.600;26.032;2023-07-24T00:06:07;6.40;;;5.50;;
79122;SDS011;68526;44.600;26.032;2023-07-24T00:06:23;6.40;;;5.53;;
79122;SDS011;68526;44.600;26.032;2023-07-24T00:06:39;6.90;;;5.32;;
79122;SDS011;68526;44.600;26.032;2023-07-24T00:06:55;7.30;;;5.40;;
79122;SDS011;68526;44.600;26.032;2023-07-24T00:07:10;8.00;;;6.13;;
79122;SDS011;68526;44.600;26.032;2023-07-24T00:07:27;8.02;;;6.25;;
79122;SDS011;68526;44.600;26.032;2023-07-24T00:07:43;7.50;;;5.90;;
79122;SDS011;68526;44.600;26.032;2023-07-24T00:07:59;7.10;;;5.53;;
79122;SDS011;68526;44.600;26.032;2023-07-24T00:08:15;8.30;;;6.05;;
79122;SDS011;68526;44.600;26.032;2023-07-24T00:08:30;9.80;;;6.47;;
79122;SDS011;68526;44.600;26.032;2023-07-24T00:08:46;10.02;;;6.20;;
79122;SDS011;68526;44.600;26.032;2023-07-24T00:09:02;8.90;;;5.93;;
79122;SDS011;68526;44.600;26.032;2023-07-24T00:09:19;10.48;;;6.03;;
79122;SDS011;68526;44.600;26.032;2023-07-24T00:09:35;10.75;;;6.40;;
79122;SDS011;68526;44.600;26.032;2023-07-24T00:09:50;9.77;;;6.43;;
79122;SDS011;68526;44.600;26.032;2023-07-24T00:10:06;10.20;;;6.23;;
79122;SDS011;68526;44.600;26.032;2023-07-24T00:10:22;11.57;;;6.60;;
79122;SDS011;68526;44.600;26.032;2023-07-24T00:10:38;11.97;;;6.70;;
79122;SDS011;68526;44.600;26.032;2023-07-24T00:10:55;14.55;;;6.65;;
79122;SDS011;68526;44.600;26.032;2023-07-24T00:11:11;14.77;;;6.63;;
79122;SDS011;68526;44.600;26.032;2023-07-24T00:11:27;12.45;;;6.55;;
79122;SDS011;68526;44.600;26.032;2023-07-24T00:11:43;11.20;;;6.37;;
79122;SDS011;68526;44.600;26.032;2023-07-24T00:11:58;11.18;;;6.47;;
79122;SDS011;68526;44.600;26.032;2023-07-24T00:12:14;11.27;;;6.80;;
79122;SDS011;68526;44.600;26.032;2023-07-24T00:12:30;10.73;;;6.70;;
79122;SDS011;68526;44.600;26.032;2023-07-24T00:12:46;13.07;;;7.03;;
79122;SDS011;68526;44.600;26.032;2023-07-24T00:13:02;13.10;;;6.88;;
79122;SDS011;68526;44.600;26.032;2023-07-24T00:13:19;8.82;;;6.38;;
79122;SDS011;68526;44.600;26.032;2023-07-24T00:13:34;10.20;;;6.32;;
79122;SDS011;68526;44.600;26.032;2023-07-24T00:13:50;10.30;;;6.50;;
79122;SDS011;68526;44.600;26.032;2023-07-24T00:14:06;10.88;;;6.50;;
79122;SDS011;68526;44.600;26.032;2023-07-24T00:14:22;12.32;;;6.28;;
79122;SDS011;68526;44.600;26.032;2023-07-24T00:14:37;11.48;;;6.20;;
79122;SDS011;68526;44.600;26.032;2023-07-24T00:14:53;11.35;;;6.32;;
79122;SDS011;68526;44.600;26.032;2023-07-24T00:15:09;12.32;;;6.50;;
79122;SDS011;68526;44.600;26.032;2023-07-24T00:15:26;13.95;;;6.53;;
79122;SDS011;68526;44.600;26.032;2023-07-24T00:15:42;13.43;;;6.63;;
79122;SDS011;68526;44.600;26.032;2023-07-24T00:15:58;13.55;;;6.95;;
79122;SDS011;68526;44.600;26.032;2023-07-24T00:16:14;11.35;;;6.55;;
79122;SDS011;68526;44.600;26.032;2023-07-24T00:16:30;10.03;;;6.00;;
79122;SDS011;68526;44.600;26.032;2023-07-24T00:16:47;11.43;;;6.20;;
79122;SDS011;68526;44.600;26.032;2023-07-24T00:17:03;11.20;;;6.85;;
79122;SDS011;68526;44.600;26.032;2023-07-24T00:17:20;10.65;;;6.70;;
79122;SDS011;68526;44.600;26.032;2023-07-24T00:17:36;10.38;;;6.30;;
79122;SDS011;68526;44.600;26.032;2023-07-24T00:17:52;11.77;;;6.55;;
79122;SDS011;68526;44.600;26.032;2023-07-24T00:18:07;13.23;;;6.50;;
79122;SDS011;68526;44.600;26.032;2023-07-24T00:18:23;11.10;;;6.30;;
79122;SDS011;68526;44.600;26.032;2023-07-24T00:18:39;9.45;;;6.55;;
79122;SDS011;68526;44.600;26.032;2023-07-24T00:18:56;8.98;;;6.45;;
79122;SDS011;68526;44.600;26.032;2023-07-24T00:19:12;10.27;;;6.43;;
79122;SDS011;68526;44.600;26.032;2023-07-24T00:19:28;12.27;;;6.47;;
79122;SDS011;68526;44.600;26.032;2023-07-24T00:19:44;11.23;;;6.30;;
79122;SDS011;68526;44.600;26.032;2023-07-24T00:20:00;9.30;;;6.20;;
79122;SDS011;68526;44.600;26.032;2023-07-24T00:20:15;9.63;;;6.05;;
79122;SDS011;68526;44.600;26.032;2023-07-24T00:20:32;10.20;;;6.10;;
79122;SDS011;68526;44.600;26.032;2023-07-24T00:20:48;11.90;;;6.60;;
79122;SDS011;68526;44.600;26.032;2023-07-24T00:21:04;12.00;;;6.68;;
79122;SDS011;68526;44.600;26.032;2023-07-24T00:21:19;13.13;;;6.07;;
79122;SDS011;68526;44.600;26.032;2023-07-24T00:21:35;12.33;;;6.00;;
79122;SDS011;68526;44.600;26.032;2023-07-24T00:21:51;10.20;;;6.30;;
79122;SDS011;68526;44.600;26.032;2023-07-24T00:22:07;11.98;;;6.20;;
79122;SDS011;68526;44.600;26.032;2023-07-24T00:22:23;12.13;;;6.03;;
79122;SDS011;68526;44.600;26.032;2023-07-24T00:22:39;9.97;;;6.03;;
79122;SDS011;68526;44.600;26.032;2023-07-24T00:22:55;9.05;;;6.00;;
79122;SDS011;68526;44.600;26.032;2023-07-24T00:23:11;10.93;;;6.07;;
79122;SDS011;68526;44.600;26.032;2023-07-24T00:23:27;12.30;;;6.88;;
79122;SDS011;68526;44.600;26.032;2023-07-24T00:23:43;12.15;;;6.97;;
79122;SDS011;68526;44.600;26.032;2023-07-24T00:23:58;12.27;;;6.73;;
79122;SDS011;68526;44.600;26.032;2023-07-24T00:24:15;10.88;;;6.28;;
79122;SDS011;68526;44.600;26.032;2023-07-24T00:24:31;10.55;;;6.32;;
79122;SDS011;68526;44.600;26.032;2023-07-24T00:24:47;11.32;;;6.40;;
79122;SDS011;68526;44.600;26.032;2023-07-24T00:25:03;9.73;;;5.85;;
79122;SDS011;68526;44.600;26.032;2023-07-24T00:25:21;9.43;;;5.82;;
79122;SDS011;68526;44.600;26.032;2023-07-24T00:25:37;10.10;;;5.93;;
79122;SDS011;68526;44.600;26.032;2023-07-24T00:25:53;10.50;;;6.13;;
79122;SDS011;68526;44.600;26.032;2023-07-24T00:26:09;8.52;;;6.00;;
79122;SDS011;68526;44.600;26.032;2023-07-24T00:26:25;7.73;;;5.80;;
79122;SDS011;68526;44.600;26.032;2023-07-24T00:26:41;7.32;;;5.65;;
79122;SDS011;68526;44.600;26.032;2023-07-24T00:26:57;9.20;;;6.03;;
79122;SDS011;68526;44.600;26.032;2023-07-24T00:27:12;9.60;;;6.30;;
79122;SDS011;68526;44.600;26.032;2023-07-24T00:27:29;7.75;;;5.85;;
79122;SDS011;68526;44.600;26.032;2023-07-24T00:27:44;8.10;;;5.60;;
79122;SDS011;68526;44.600;26.032;2023-07-24T00:28:01;9.27;;;5.80;;
79122;SDS011;68526;44.600;26.032;2023-07-24T00:28:17;8.32;;;5.72;;
79122;SDS011;68526;44.600;26.032;2023-07-24T00:28:33;7.00;;;5.55;;
79122;SDS011;68526;44.600;26.032;2023-07-24T00:28:49;7.22;;;5.70;;
79122;SDS011;68526;44.600;26.032;2023-07-24T00:29:05;7.97;;;5.60;;
79122;SDS011;68526;44.600;26.032;2023-07-24T00:29:20;8.20;;;5.45;;
79122;SDS011;68526;44.600;26.032;2023-07-24T00:29:36;8.70;;;5.60;;
79122;SDS011;68526;44.600;26.032;2023-07-24T00:29:53;10.57;;;5.68;;
79122;SDS011;68526;44.600;26.032;2023-07-24T00:30:09;10.82;;;5.60;;
79122;SDS011;68526;44.600;26.032;2023-07-24T00:30:25;7.03;;;5.35;;
79122;SDS011;68526;44.600;26.032;2023-07-24T00:30:41;6.63;;;5.03;;
79122;SDS011;68526;44.600;26.032;2023-07-24T00:30:57;7.35;;;5.32;;
79122;SDS011;68526;44.600;26.032;2023-07-24T00:31:13;7.70;;;5.70;;
79122;SDS011;68526;44.600;26.032;2023-07-24T00:31:30;8.00;;;5.60;;
79122;SDS011;68526;44.600;26.032;2023-07-24T00:31:47;8.60;;;5.75;;
79122;SDS011;68526;44.600;26.032;2023-07-24T00:32:03;9.25;;;6.03;;
79122;SDS011;68526;44.600;26.032;2023-07-24T00:32:20;8.15;;;5.75;;
79122;SDS011;68526;44.600;26.032;2023-07-24T00:32:36;7.33;;;5.50;;
79122;SDS011;68526;44.600;26.032;2023-07-24T00:32:51;7.30;;;5.70;;
79122;SDS011;68526;44.600;26.032;2023-07-24T00:33:07;6.90;;;5.80;;
79122;SDS011;68526;44.600;26.032;2023-07-24T00:33:24;7.28;;;5.63;;
79122;SDS011;68526;44.600;26.032;2023-07-24T00:33:40;7.30;;;5.70;;
79122;SDS011;68526;44.600;26.032;2023-07-24T00:33:56;7.18;;;5.80;;
79122;SDS011;68526;44.600;26.032;2023-07-24T00:34:15;7.10;;;5.88;;
79122;SDS011;68526;44.600;26.032;2023-07-24T00:34:30;7.70;;;5.93;;
79122;SDS011;68526;44.600;26.032;2023-07-24T00:34:46;7.63;;;5.90;;
79122;SDS011;68526;44.600;26.032;2023-07-24T00:35:02;7.65;;;5.93;;
79122;SDS011;68526;44.600;26.032;2023-07-24T00:35:18;8.00;;;6.07;;
79122;SDS011;68526;44.600;26.032;2023-07-24T00:35:34;8.00;;;5.72;;
79122;SDS011;68526;44.600;26.032;2023-07-24T00:35:54;8.25;;;5.55;;
79122;SDS011;68526;44.600;26.032;2023-07-24T00:36:10;7.55;;;5.70;;
79122;SDS011;68526;44.600;26.032;2023-07-24T00:36:26;7.20;;;5.72;;
79122;SDS011;68526;44.600;26.032;2023-07-24T00:36:42;8.68;;;5.60;;
79122;SDS011;68526;44.600;26.032;2023-07-24T00:36:58;8.93;;;5.88;;
79122;SDS011;68526;44.600;26.032;2023-07-24T00:37:14;7.33;;;5.80;;
79122;SDS011;68526;44.600;26.032;2023-07-24T00:37:29;6.47;;;5.57;;
79122;SDS011;68526;44.600;26.032;2023-07-24T00:37:46;7.30;;;5.50;;
79122;SDS011;68526;44.600;26.032;2023-07-24T00:38:02;8.63;;;5.90;;
79122;SDS011;68526;44.600;26.032;2023-07-24T00:38:18;7.80;;;5.80;;
79122;SDS011;68526;44.600;26.032;2023-07-24T00:38:33;8.05;;;5.60;;
79122;SDS011;68526;44.600;26.032;2023-07-24T00:38:49;9.53;;;6.40;;
79122;SDS011;68526;44.600;26.032;2023-07-24T00:39:05;10.10;;;6.32;;
79122;SDS011;68526;44.600;26.032;2023-07-24T00:39:21;9.55;;;6.07;;
79122;SDS011;68526;44.600;26.032;2023-07-24T00:39:36;8.17;;;6.20;;
79122;SDS011;68526;44.600;26.032;2023-07-24T00:39:53;8.05;;;5.88;;
79122;SDS011;68526;44.600;26.032;2023-07-24T00:40:09;7.60;;;5.80;;
79122;SDS011;68526;44.600;26.032;2023-07-24T00:40:25;7.25;;;5.85;;
79122;SDS011;68526;44.600;26.032;2023-07-24T00:40:41;8.80;;;6.05;;
79122;SDS011;68526;44.600;26.032;2023-07-24T00:40:57;8.52;;;6.05;;
79122;SDS011;68526;44.600;26.032;2023-07-24T00:41:13;8.05;;;5.80;;
79122;SDS011;68526;44.600;26.032;2023-07-24T00:41:29;8.73;;;6.23;;
79122;SDS011;68526;44.600;26.032;2023-07-24T00:41:45;8.85;;;6.50;;
79122;SDS011;68526;44.600;26.032;2023-07-24T00:42:01;8.20;;;6.30;;
79122;SDS011;68526;44.600;26.032;2023-07-24T00:42:17;9.95;;;6.57;;
79122;SDS011;68526;44.600;26.032;2023-07-24T00:42:33;9.77;;;6.45;;
79122;SDS011;68526;44.600;26.032;2023-07-24T00:42:49;8.30;;;6.13;;
79122;SDS011;68526;44.600;26.032;2023-07-24T00:43:05;12.05;;;6.90;;
79122;SDS011;68526;44.600;26.032;2023-07-24T00:43:21;13.02;;;7.00;;
79122;SDS011;68526;44.600;26.032;2023-07-24T00:43:37;12.52;;;6.55;;
79122;SDS011;68526;44.600;26.032;2023-07-24T00:43:53;11.38;;;6.55;;
79122;SDS011;68526;44.600;26.032;2023-07-24T00:44:09;10.95;;;6.82;;
79122;SDS011;68526;44.600;26.032;2023-07-24T00:44:25;12.38;;;6.65;;
79122;SDS011;68526;44.600;26.032;2023-07-24T00:44:41;11.15;;;6.43;;
79122;SDS011;68526;44.600;26.032;2023-07-24T00:44:57;10.47;;;6.80;;
79122;SDS011;68526;44.600;26.032;2023-07-24T00:45:12;9.77;;;6.68;;
79122;SDS011;68526;44.600;26.032;2023-07-24T00:45:28;10.70;;;6.85;;
79122;SDS011;68526;44.600;26.032;2023-07-24T00:45:44;12.25;;;7.30;;
79122;SDS011;68526;44.600;26.032;2023-07-24T00:46:03;13.80;;;7.20;;
79122;SDS011;68526;44.600;26.032;2023-07-24T00:46:19;13.48;;;7.10;;
79122;SDS011;68526;44.600;26.032;2023-07-24T00:46:35;12.18;;;6.90;;
79122;SDS011;68526;44.600;26.032;2023-07-24T00:46:52;12.85;;;6.60;;
79122;SDS011;68526;44.600;26.032;2023-07-24T00:47:09;12.48;;;6.55;;
79122;SDS011;68526;44.600;26.032;2023-07-24T00:47:25;12.88;;;6.63;;
79122;SDS011;68526;44.600;26.032;2023-07-24T00:47:42;12.82;;;6.90;;
79122;SDS011;68526;44.600;26.032;2023-07-24T00:47:59;13.85;;;6.80;;
79122;SDS011;68526;44.600;26.032;2023-07-24T00:48:16;14.80;;;7.45;;
79122;SDS011;68526;44.600;26.032;2023-07-24T00:48:32;12.18;;;7.68;;
79122;SDS011;68526;44.600;26.032;2023-07-24T00:48:48;11.38;;;7.07;;
79122;SDS011;68526;44.600;26.032;2023-07-24T00:49:05;13.15;;;7.25;;
79122;SDS011;68526;44.600;26.032;2023-07-24T00:49:21;13.75;;;7.40;;
79122;SDS011;68526;44.600;26.032;2023-07-24T00:49:37;14.43;;;7.10;;
79122;SDS011;68526;44.600;26.032;2023-07-24T00:49:53;13.52;;;7.25;;
79122;SDS011;68526;44.600;26.032;2023-07-24T00:50:09;11.23;;;7.00;;
79122;SDS011;68526;44.600;26.032;2023-07-24T00:50:27;11.80;;;7.13;;
79122;SDS011;68526;44.600;26.032;2023-07-24T00:50:44;12.75;;;7.10;;
79122;SDS011;68526;44.600;26.032;2023-07-24T00:51:01;12.60;;;7.18;;
79122;SDS011;68526;44.600;26.032;2023-07-24T00:51:17;12.35;;;7.32;;
79122;SDS011;68526;44.600;26.032;2023-07-24T00:51:33;13.60;;;7.55;;
79122;SDS011;68526;44.600;26.032;2023-07-24T00:51:49;16.63;;;7.87;;
79122;SDS011;68526;44.600;26.032;2023-07-24T00:52:05;16.20;;;7.65;;
79122;SDS011;68526;44.600;26.032;2023-07-24T00:52:23;15.75;;;7.72;;
79122;SDS011;68526;44.600;26.032;2023-07-24T00:52:40;17.30;;;8.07;;
79122;SDS011;68526;44.600;26.032;2023-07-24T00:52:57;17.17;;;7.90;;
79122;SDS011;68526;44.600;26.032;2023-07-24T00:53:13;14.93;;;7.95;;
79122;SDS011;68526;44.600;26.032;2023-07-24T00:53:31;12.40;;;7.75;;
79122;SDS011;68526;44.600;26.032;2023-07-24T00:53:47;13.05;;;7.82;;
79122;SDS011;68526;44.600;26.032;2023-07-24T00:54:03;17.48;;;7.95;;
79122;SDS011;68526;44.600;26.032;2023-07-24T00:54:21;20.88;;;8.55;;
79122;SDS011;68526;44.600;26.032;2023-07-24T00:54:40;16.35;;;8.38;;
79122;SDS011;68526;44.600;26.032;2023-07-24T00:54:56;14.75;;;8.07;;
79122;SDS011;68526;44.600;26.032;2023-07-24T00:55:12;14.23;;;8.20;;
79122;SDS011;68526;44.600;26.032;2023-07-24T00:55:28;14.27;;;7.93;;
79122;SDS011;68526;44.600;26.032;2023-07-24T00:55:44;14.52;;;7.88;;
79122;SDS011;68526;44.600;26.032;2023-07-24T00:56:00;12.40;;;7.60;;
79122;SDS011;68526;44.600;26.032;2023-07-24T00:56:16;13.63;;;8.23;;
79122;SDS011;68526;44.600;26.032;2023-07-24T00:56:33;15.07;;;8.45;;
79122;SDS011;68526;44.600;26.032;2023-07-24T00:56:49;12.82;;;7.93;;
79122;SDS011;68526;44.600;26.032;2023-07-24T00:57:06;13.52;;;8.05;;
79122;SDS011;68526;44.600;26.032;2023-07-24T00:57:22;13.55;;;7.47;;
79122;SDS011;68526;44.600;26.032;2023-07-24T00:57:38;11.82;;;7.20;;
79122;SDS011;68526;44.600;26.032;2023-07-24T00:57:56;10.93;;;7.10;;
79122;SDS011;68526;44.600;26.032;2023-07-24T00:58:14;14.10;;;7.57;;
79122;SDS011;68526;44.600;26.032;2023-07-24T00:58:32;15.85;;;7.75;;
79122;SDS011;68526;44.600;26.032;2023-07-24T00:58:48;16.45;;;7.68;;
79122;SDS011;68526;44.600;26.032;2023-07-24T00:59:05;18.70;;;7.90;;
79122;SDS011;68526;44.600;26.032;2023-07-24T00:59:20;15.70;;;7.78;;
79122;SDS011;68526;44.600;26.032;2023-07-24T00:59:36;12.23;;;7.40;;
79122;SDS011;68526;44.600;26.032;2023-07-24T00:59:52;14.93;;;7.50;;
79122;SDS011;68526;44.600;26.032;2023-07-24T01:00:11;12.75;;;7.63;;
79122;SDS011;68526;44.600;26.032;2023-07-24T01:00:27;12.05;;;7.80;;
79122;SDS011;68526;44.600;26.032;2023-07-24T01:00:43;13.18;;;7.63;;
79122;SDS011;68526;44.600;26.032;2023-07-24T01:00:59;11.93;;;7.35;;
79122;SDS011;68526;44.600;26.032;2023-07-24T01:01:15;11.07;;;7.40;;
79122;SDS011;68526;44.600;26.032;2023-07-24T01:01:32;13.53;;;7.50;;
79122;SDS011;68526;44.600;26.032;2023-07-24T01:01:49;11.90;;;7.40;;
79122;SDS011;68526;44.600;26.032;2023-07-24T01:02:06;10.70;;;7.03;;
79122;SDS011;68526;44.600;26.032;2023-07-24T01:02:22;10.70;;;7.00;;
79122;SDS011;68526;44.600;26.032;2023-07-24T01:02:38;10.20;;;7.22;;
79122;SDS011;68526;44.600;26.032;2023-07-24T01:02:54;9.25;;;7.15;;
79122;SDS011;68526;44.600;26.032;2023-07-24T01:03:11;9.40;;;7.10;;
79122;SDS011;68526;44.600;26.032;2023-07-24T01:03:30;8.88;;;7.00;;
79122;SDS011;68526;44.600;26.032;2023-07-24T01:03:49;7.75;;;6.70;;
79122;SDS011;68526;44.600;26.032;2023-07-24T01:04:05;8.32;;;7.00;;
79122;SDS011;68526;44.600;26.032;2023-07-24T01:04:22;9.95;;;6.93;;
79122;SDS011;68526;44.600;26.032;2023-07-24T01:04:38;10.32;;;7.13;;
79122;SDS011;68526;44.600;26.032;2023-07-24T01:04:54;9.47;;;7.13;;
79122;SDS011;68526;44.600;26.032;2023-07-24T01:05:09;8.52;;;6.82;;
79122;SDS011;68526;44.600;26.032;2023-07-24T01:05:28;8.90;;;7.10;;
79122;SDS011;68526;44.600;26.032;2023-07-24T01:05:45;8.65;;;7.07;;
79122;SDS011;68526;44.600;26.032;2023-07-24T01:06:01;8.40;;;7.03;;
79122;SDS011;68526;44.600;26.032;2023-07-24T01:06:17;9.60;;;6.82;;
79122;SDS011;68526;44.600;26.032;2023-07-24T01:06:33;10.27;;;6.82;;
79122;SDS011;68526;44.600;26.032;2023-07-24T01:06:49;9.23;;;7.07;;
79122;SDS011;68526;44.600;26.032;2023-07-24T01:07:05;8.65;;;7.07;;
79122;SDS011;68526;44.600;26.032;2023-07-24T01:07:22;8.85;;;6.97;;
79122;SDS011;68526;44.600;26.032;2023-07-24T01:07:37;8.80;;;6.95;;
79122;SDS011;68526;44.600;26.032;2023-07-24T01:07:53;8.30;;;6.93;;
79122;SDS011;68526;44.600;26.032;2023-07-24T01:08:09;10.10;;;7.33;;
79122;SDS011;68526;44.600;26.032;2023-07-24T01:08:25;11.60;;;7.50;;
79122;SDS011;68526;44.600;26.032;2023-07-24T01:08:41;10.90;;;7.05;;
79122;SDS011;68526;44.600;26.032;2023-07-24T01:08:57;10.48;;;6.90;;
79122;SDS011;68526;44.600;26.032;2023-07-24T01:09:14;9.32;;;6.55;;
79122;SDS011;68526;44.600;26.032;2023-07-24T01:09:30;8.83;;;6.63;;
79122;SDS011;68526;44.600;26.032;2023-07-24T01:09:45;8.82;;;6.90;;
79122;SDS011;68526;44.600;26.032;2023-07-24T01:10:02;9.95;;;7.22;;
79122;SDS011;68526;44.600;26.032;2023-07-24T01:10:18;9.18;;;6.95;;
79122;SDS011;68526;44.600;26.032;2023-07-24T01:10:41;8.87;;;6.63;;
79122;SDS011;68526;44.600;26.032;2023-07-24T01:11:00;8.90;;;6.85;;
79122;SDS011;68526;44.600;26.032;2023-07-24T01:11:24;8.50;;;6.68;;
79122;SDS011;68526;44.600;26.032;2023-07-24T01:11:44;9.02;;;7.15;;
79122;SDS011;68526;44.600;26.032;2023-07-24T01:12:04;9.07;;;6.90;;
79122;SDS011;68526;44.600;26.032;2023-07-24T01:12:27;11.65;;;7.03;;
79122;SDS011;68526;44.600;26.032;2023-07-24T01:12:51;9.80;;;6.95;;
79122;SDS011;68526;44.600;26.032;2023-07-24T01:13:14;9.27;;;6.97;;
79122;SDS011;68526;44.600;26.032;2023-07-24T01:13:32;8.73;;;7.20;;
79122;SDS011;68526;44.600;26.032;2023-07-24T01:13:56;8.93;;;7.22;;
79122;SDS011;68526;44.600;26.032;2023-07-24T01:14:18;7.63;;;6.60;;
79122;SDS011;68526;44.600;26.032;2023-07-24T01:14:41;9.65;;;6.50;;
79122;SDS011;68526;44.600;26.032;2023-07-24T01:15:03;8.80;;;6.53;;
79122;SDS011;68526;44.600;26.032;2023-07-24T01:15:28;9.45;;;7.28;;
79122;SDS011;68526;44.600;26.032;2023-07-24T01:15:48;10.45;;;7.15;;
79122;SDS011;68526;44.600;26.032;2023-07-24T01:16:12;11.00;;;7.20;;
79122;SDS011;68526;44.600;26.032;2023-07-24T01:16:32;10.95;;;7.32;;
79122;SDS011;68526;44.600;26.032;2023-07-24T01:16:52;9.10;;;6.72;;
79122;SDS011;68526;44.600;26.032;2023-07-24T01:17:14;8.35;;;6.70;;
79122;SDS011;68526;44.600;26.032;2023-07-24T01:17:31;9.35;;;6.95;;
79122;SDS011;68526;44.600;26.032;2023-07-24T01:17:50;9.95;;;7.15;;
79122;SDS011;68526;44.600;26.032;2023-07-24T01:18:12;8.98;;;7.07;;
79122;SDS011;68526;44.600;26.032;2023-07-24T01:18:32;8.93;;;7.30;;
79122;SDS011;68526;44.600;26.032;2023-07-24T01:18:52;9.30;;;7.30;;
79122;SDS011;68526;44.600;26.032;2023-07-24T01:19:12;10.80;;;7.35;;
79122;SDS011;68526;44.600;26.032;2023-07-24T01:19:36;10.68;;;7.20;;
79122;SDS011;68526;44.600;26.032;2023-07-24T01:19:54;8.65;;;7.13;;
79122;SDS011;68526;44.600;26.032;2023-07-24T01:20:14;8.35;;;7.25;;
79122;SDS011;68526;44.600;26.032;2023-07-24T01:20:32;8.23;;;7.20;;
79122;SDS011;68526;44.600;26.032;2023-07-24T01:20:53;7.97;;;7.18;;
79122;SDS011;68526;44.600;26.032;2023-07-24T01:21:11;8.30;;;7.38;;
79122;SDS011;68526;44.600;26.032;2023-07-24T01:21:29;9.68;;;7.28;;
79122;SDS011;68526;44.600;26.032;2023-07-24T01:21:58;8.55;;;7.35;;
79122;SDS011;68526;44.600;26.032;2023-07-24T01:22:25;9.38;;;7.03;;
79122;SDS011;68526;44.600;26.032;2023-07-24T01:22:50;8.80;;;7.10;;
79122;SDS011;68526;44.600;26.032;2023-07-24T01:23:22;9.73;;;7.10;;
79122;SDS011;68526;44.600;26.032;2023-07-24T01:23:49;8.75;;;7.03;;
79122;SDS011;68526;44.600;26.032;2023-07-24T01:24:14;7.97;;;6.50;;
79122;SDS011;68526;44.600;26.032;2023-07-24T01:24:43;9.00;;;7.20;;
79122;SDS011;68526;44.600;26.032;2023-07-24T01:25:18;9.45;;;7.22;;
79122;SDS011;68526;44.600;26.032;2023-07-24T01:25:48;7.85;;;7.03;;
79122;SDS011;68526;44.600;26.032;2023-07-24T01:26:08;8.05;;;6.90;;
79122;SDS011;68526;44.600;26.032;2023-07-24T01:26:26;10.35;;;6.95;;
79122;SDS011;68526;44.600;26.032;2023-07-24T01:26:43;10.55;;;7.30;;
79122;SDS011;68526;44.600;26.032;2023-07-24T01:26:59;8.65;;;7.03;;
79122;SDS011;68526;44.600;26.032;2023-07-24T01:27:18;8.30;;;6.90;;
79122;SDS011;68526;44.600;26.032;2023-07-24T01:27:35;7.75;;;6.95;;
79122;SDS011;68526;44.600;26.032;2023-07-24T01:27:56;8.23;;;7.00;;
79122;SDS011;68526;44.600;26.032;2023-07-24T01:28:11;8.77;;;7.18;;
79122;SDS011;68526;44.600;26.032;2023-07-24T01:28:28;9.67;;;7.10;;
79122;SDS011;68526;44.600;26.032;2023-07-24T01:28:44;11.07;;;7.25;;
79122;SDS011;68526;44.600;26.032;2023-07-24T01:29:00;10.27;;;7.35;;
79122;SDS011;68526;44.600;26.032;2023-07-24T01:29:16;8.27;;;7.17;;
79122;SDS011;68526;44.600;26.032;2023-07-24T01:29:32;9.07;;;7.07;;
79122;SDS011;68526;44.600;26.032;2023-07-24T01:29:48;9.43;;;7.25;;
79122;SDS011;68526;44.600;26.032;2023-07-24T01:30:04;8.57;;;7.20;;
79122;SDS011;68526;44.600;26.032;2023-07-24T01:30:21;9.35;;;7.20;;
79122;SDS011;68526;44.600;26.032;2023-07-24T01:30:37;9.77;;;7.20;;
79122;SDS011;68526;44.600;26.032;2023-07-24T01:30:53;8.70;;;7.30;;
79122;SDS011;68526;44.600;26.032;2023-07-24T01:31:10;8.55;;;7.22;;
79122;SDS011;68526;44.600;26.032;2023-07-24T01:31:25;9.18;;;7.30;;
79122;SDS011;68526;44.600;26.032;2023-07-24T01:31:41;9.27;;;7.28;;
79122;SDS011;68526;44.600;26.032;2023-07-24T01:31:57;9.13;;;7.53;;
79122;SDS011;68526;44.600;26.032;2023-07-24T01:32:14;10.38;;;7.90;;
79122;SDS011;68526;44.600;26.032;2023-07-24T01:32:29;10.27;;;7.75;;
79122;SDS011;68526;44.600;26.032;2023-07-24T01:32:45;8.82;;;7.20;;
79122;SDS011;68526;44.600;26.032;2023-07-24T01:33:01;7.75;;;6.78;;
79122;SDS011;68526;44.600;26.032;2023-07-24T01:33:18;8.70;;;6.82;;
79122;SDS011;68526;44.600;26.032;2023-07-24T01:33:34;9.15;;;6.97;;
79122;SDS011;68526;44.600;26.032;2023-07-24T01:33:52;8.98;;;7.28;;
79122;SDS011;68526;44.600;26.032;2023-07-24T01:34:09;9.55;;;7.38;;
79122;SDS011;68526;44.600;26.032;2023-07-24T01:34:24;9.40;;;7.40;;
79122;SDS011;68526;44.600;26.032;2023-07-24T01:34:40;9.88;;;7.53;;
79122;SDS011;68526;44.600;26.032;2023-07-24T01:34:57;9.23;;;7.47;;
79122;SDS011;68526;44.600;26.032;2023-07-24T01:35:13;8.77;;;7.45;;
79122;SDS011;68526;44.600;26.032;2023-07-24T01:35:29;8.32;;;7.22;;
79122;SDS011;68526;44.600;26.032;2023-07-24T01:35:49;8.32;;;7.10;;
79122;SDS011;68526;44.600;26.032;2023-07-24T01:36:06;9.20;;;7.40;;
79122;SDS011;68526;44.600;26.032;2023-07-24T01:36:22;9.13;;;7.22;;
79122;SDS011;68526;44.600;26.032;2023-07-24T01:36:39;9.65;;;7.22;;
79122;SDS011;68526;44.600;26.032;2023-07-24T01:36:55;9.43;;;7.32;;
79122;SDS011;68526;44.600;26.032;2023-07-24T01:37:11;8.70;;;7.20;;
79122;SDS011;68526;44.600;26.032;2023-07-24T01:37:27;8.55;;;7.15;;
79122;SDS011;68526;44.600;26.032;2023-07-24T01:37:44;9.85;;;7.63;;
79122;SDS011;68526;44.600;26.032;2023-07-24T01:38:03;11.25;;;7.88;;
79122;SDS011;68526;44.600;26.032;2023-07-24T01:38:19;10.10;;;7.15;;
79122;SDS011;68526;44.600;26.032;2023-07-24T01:38:39;8.93;;;7.18;;
79122;SDS011;68526;44.600;26.032;2023-07-24T01:38:55;8.75;;;7.38;;
79122;SDS011;68526;44.600;26.032;2023-07-24T01:39:11;8.27;;;7.35;;
79122;SDS011;68526;44.600;26.032;2023-07-24T01:39:29;8.20;;;7.40;;
79122;SDS011;68526;44.600;26.032;2023-07-24T01:39:46;8.55;;;7.60;;
79122;SDS011;68526;44.600;26.032;2023-07-24T01:40:03;9.65;;;8.23;;
79122;SDS011;68526;44.600;26.032;2023-07-24T01:40:20;9.50;;;7.80;;
79122;SDS011;68526;44.600;26.032;2023-07-24T01:40:37;9.48;;;7.85;;